Time;durP1;ratioP1;P1;durP2;ratioP2;P2;SDS_P1;SDS_P2;PMS_P1;PMS_P2;Temp;Humidity;BMP_temperature;BMP_pressure;BME280_temperature;BME280_humidity;BME280_pressure;Samples;Min_cycle;Max_cycle;Signal;HPM_P1;HPM_P2
2022/05/12 00:01:13;;;;;;;1241.43;999.90;;;16.60;99.90;;;;;;5035062;28;20213;-76
2022/05/12 00:03:39;;;;;;;1239.05;999.90;;;16.60;99.90;;;;;;5036274;28;20198;-76
2022/05/12 00:06:05;;;;;;;1238.00;999.90;;;16.40;99.90;;;;;;5035153;28;20236;-77
2022/05/12 00:08:31;;;;;;;1247.53;999.90;;;16.40;99.90;;;;;;5046669;28;20203;-77
2022/05/12 00:10:57;;;;;;;1244.07;999.90;;;16.50;99.90;;;;;;5033747;28;20218;-77
2022/05/12 00:13:23;;;;;;;1242.75;999.90;;;16.60;99.90;;;;;;5034015;28;20270;-77
2022/05/12 00:15:48;;;;;;;1230.47;999.90;;;16.50;99.90;;;;;;5045111;28;20186;-77
2022/05/12 00:18:14;;;;;;;1215.18;999.90;;;16.40;99.90;;;;;;5043490;28;20194;-77
2022/05/12 00:20:42;;;;;;;1204.32;999.90;;;16.20;99.90;;;;;;5017683;28;20203;-77
2022/05/12 00:23:14;;;;;;;1156.72;999.90;;;16.30;99.90;;;;;;5052693;28;20190;-77
2022/05/12 00:25:44;;;;;;;1101.50;999.90;;;16.30;99.90;;;;;;5052393;28;20611;-77
2022/05/12 00:28:10;;;;;;;1062.78;985.63;;;16.20;99.90;;;;;;5032848;28;20195;-78
2022/05/12 00:30:36;;;;;;;960.30;895.10;;;16.20;99.90;;;;;;5032872;28;20535;-77
2022/05/12 00:33:03;;;;;;;721.80;678.88;;;16.20;99.90;;;;;;5033929;28;20173;-77
2022/05/12 00:35:28;;;;;;;435.77;410.95;;;16.10;99.90;;;;;;5035309;28;20241;-77
2022/05/12 00:37:54;;;;;;;285.00;267.10;;;15.90;99.90;;;;;;5052470;28;20190;-77
2022/05/12 00:40:20;;;;;;;574.83;538.10;;;15.90;99.90;;;;;;5018638;28;20195;-77
2022/05/12 00:43:05;;;;;;;742.45;690.65;;;15.90;99.90;;;;;;5043356;28;20639;-77
2022/05/12 00:45:35;;;;;;;770.58;718.28;;;15.90;99.90;;;;;;5047879;28;20261;-77
2022/05/12 00:48:03;;;;;;;827.50;768.63;;;15.90;99.90;;;;;;5033478;28;20178;-77
2022/05/12 00:50:34;;;;;;;853.60;791.28;;;15.90;99.90;;;;;;5033718;28;20613;-77
2022/05/12 00:53:01;;;;;;;869.10;804.20;;;15.90;99.90;;;;;;5053265;28;20181;-77
2022/05/12 00:55:34;;;;;;;883.55;819.22;;;15.90;99.90;;;;;;5034359;28;20189;-78
2022/05/12 00:58:04;;;;;;;916.85;845.60;;;15.90;99.90;;;;;;5034184;28;20182;-77
2022/05/12 01:00:29;;;;;;;938.45;862.95;;;15.80;99.90;;;;;;5033733;28;20617;-77
2022/05/12 01:02:57;;;;;;;1009.03;928.20;;;15.80;99.90;;;;;;5033446;28;20282;-77
2022/05/12 01:05:25;;;;;;;1018.78;934.65;;;15.70;99.90;;;;;;5032705;28;20611;-77
2022/05/12 01:07:51;;;;;;;1038.22;951.72;;;15.70;99.90;;;;;;5049668;28;20191;-77
2022/05/12 01:10:18;;;;;;;1064.72;973.88;;;15.70;99.90;;;;;;5049265;28;20197;-78
2022/05/12 01:12:48;;;;;;;1078.93;979.33;;;15.50;99.90;;;;;;5071777;28;20218;-78
2022/05/12 01:15:14;;;;;;;1076.72;982.22;;;15.50;99.90;;;;;;5042462;28;20594;-77
2022/05/12 01:17:40;;;;;;;1098.30;989.05;;;15.50;99.90;;;;;;5055970;28;20182;-77
2022/05/12 01:20:07;;;;;;;1129.38;999.90;;;15.50;99.90;;;;;;5068575;28;20197;-77
2022/05/12 01:22:44;;;;;;;1151.25;999.90;;;15.50;99.90;;;;;;5052888;28;20650;-77
2022/05/12 01:25:13;;;;;;;1124.40;999.90;;;15.50;99.90;;;;;;5051610;28;20549;-77
2022/05/12 01:27:42;;;;;;;1119.78;996.15;;;15.50;99.90;;;;;;5040944;28;20181;-76
2022/05/12 01:30:09;;;;;;;1126.03;998.63;;;15.40;99.90;;;;;;5062986;28;20186;-77
2022/05/12 01:32:35;;;;;;;1139.35;999.90;;;15.60;99.90;;;;;;5040230;28;20221;-77
2022/05/12 01:35:00;;;;;;;1172.55;999.90;;;15.50;99.90;;;;;;5035626;28;20194;-77
2022/05/12 01:37:27;;;;;;;1175.47;999.90;;;15.50;99.90;;;;;;5044738;28;20187;-77
2022/05/12 01:39:53;;;;;;;1198.55;999.90;;;15.30;99.90;;;;;;5032470;28;20269;-78
2022/05/12 01:42:19;;;;;;;1186.88;999.90;;;15.40;99.90;;;;;;5032232;28;20605;-77
2022/05/12 01:44:45;;;;;;;1197.70;999.90;;;15.20;99.90;;;;;;5065779;28;20694;-77
2022/05/12 01:47:14;;;;;;;1227.68;999.90;;;15.20;99.90;;;;;;5032429;28;20316;-77
2022/05/12 01:49:41;;;;;;;1229.20;999.90;;;15.20;99.90;;;;;;5032000;28;20189;-76
2022/05/12 01:52:07;;;;;;;1234.47;999.90;;;15.20;99.90;;;;;;5033219;28;20222;-77
2022/05/12 01:54:33;;;;;;;1227.38;999.90;;;15.30;99.90;;;;;;5033313;28;20179;-77
2022/05/12 01:56:59;;;;;;;1252.93;999.90;;;15.30;99.90;;;;;;5033503;28;20186;-77
2022/05/12 01:59:25;;;;;;;1271.78;999.90;;;15.30;99.90;;;;;;5046424;28;20278;-76
2022/05/12 02:01:52;;;;;;;1260.75;999.90;;;15.30;99.90;;;;;;5040414;28;20217;-76
2022/05/12 02:04:18;;;;;;;1285.65;999.90;;;15.20;99.90;;;;;;5033486;28;20205;-77
2022/05/12 02:06:45;;;;;;;1328.82;999.90;;;15.30;99.90;;;;;;5031880;28;20218;-77
2022/05/12 02:09:11;;;;;;;1351.63;999.90;;;15.30;99.90;;;;;;5067431;28;20194;-76
2022/05/12 02:11:37;;;;;;;1326.85;999.90;;;15.20;99.90;;;;;;5051102;28;20308;-78
2022/05/12 02:14:04;;;;;;;1339.05;999.90;;;15.10;99.90;;;;;;5031722;28;20278;-77
2022/05/12 02:16:33;;;;;;;1320.72;999.90;;;15.10;99.90;;;;;;5032338;28;20194;-77
2022/05/12 02:19:00;;;;;;;1338.95;999.90;;;15.10;99.90;;;;;;5047459;28;20209;-77
2022/05/12 02:21:26;;;;;;;1311.82;999.90;;;15.10;99.90;;;;;;5040153;28;20270;-77
2022/05/12 02:23:52;;;;;;;1352.13;999.90;;;15.10;99.90;;;;;;5032482;28;20197;-78
2022/05/12 02:26:18;;;;;;;1364.78;999.90;;;15.10;99.90;;;;;;5032875;28;20695;-77
2022/05/12 02:28:43;;;;;;;1397.60;999.90;;;15.30;99.90;;;;;;5039020;28;20627;-77
2022/05/12 02:31:09;;;;;;;1407.35;999.90;;;15.40;99.90;;;;;;5046592;28;20210;-76
2022/05/12 02:33:35;;;;;;;1409.93;999.90;;;15.40;99.90;;;;;;5022548;28;20217;-77
2022/05/12 02:36:02;;;;;;;1497.35;999.90;;;15.40;99.90;;;;;;5052050;28;20185;-77
2022/05/12 02:38:28;;;;;;;1389.70;999.90;;;15.50;99.90;;;;;;5046186;28;20186;-77
2022/05/12 02:40:54;;;;;;;1424.53;999.90;;;15.50;99.90;;;;;;5032691;28;20187;-77
2022/05/12 02:43:23;;;;;;;1428.95;999.90;;;15.50;99.90;;;;;;5082656;28;20190;-77
2022/05/12 02:46:07;;;;;;;1408.03;999.90;;;15.40;99.90;;;;;;5033526;28;20628;-76
2022/05/12 02:48:41;;;;;;;1298.60;999.90;;;15.40;99.90;;;;;;5036618;28;20174;-77
2022/05/12 02:51:08;;;;;;;1350.13;999.90;;;15.40;99.90;;;;;;5050626;28;20216;-77
2022/05/12 02:53:37;;;;;;;1380.43;999.90;;;15.50;99.90;;;;;;5039800;28;20191;-76
2022/05/12 02:56:03;;;;;;;1391.78;999.90;;;15.30;99.90;;;;;;5015505;28;20252;-77
2022/05/12 02:58:30;;;;;;;1417.97;999.90;;;15.30;99.90;;;;;;5032522;28;20213;-77
2022/05/12 03:00:56;;;;;;;1384.70;999.90;;;15.20;99.90;;;;;;5032644;28;20289;-77
2022/05/12 03:03:22;;;;;;;1381.97;999.90;;;15.20;99.90;;;;;;5031239;28;20183;-76
2022/05/12 03:05:49;;;;;;;1384.95;999.90;;;15.20;99.90;;;;;;5041369;28;20593;-77
2022/05/12 03:08:14;;;;;;;1391.60;999.90;;;15.20;99.90;;;;;;5037480;28;20281;-77
2022/05/12 03:10:40;;;;;;;1410.75;999.90;;;15.10;99.90;;;;;;5023944;28;20269;-77
2022/05/12 03:13:06;;;;;;;1399.85;999.90;;;15.00;99.90;;;;;;5047993;28;20183;-77
2022/05/12 03:15:32;;;;;;;1400.68;999.90;;;15.00;99.90;;;;;;5036534;28;20182;-77
2022/05/12 03:17:58;;;;;;;1549.50;999.90;;;15.10;99.90;;;;;;5036254;28;20186;-77
2022/05/12 03:20:26;;;;;;;1482.13;999.90;;;15.10;99.90;;;;;;5052148;28;20697;-77
2022/05/12 03:22:52;;;;;;;1475.97;999.90;;;14.90;99.90;;;;;;5054713;28;20543;-76
2022/05/12 03:25:20;;;;;;;1480.38;999.90;;;14.90;99.90;;;;;;5051695;28;20181;-77
2022/05/12 03:27:46;;;;;;;1447.35;999.90;;;14.80;99.90;;;;;;5034606;28;20187;-77
2022/05/12 03:30:16;;;;;;;1431.78;999.90;;;14.70;99.90;;;;;;5035897;28;20225;-77
2022/05/12 03:32:43;;;;;;;1371.57;999.90;;;14.80;99.90;;;;;;5035606;28;20210;-77
2022/05/12 03:35:12;;;;;;;1464.78;999.90;;;14.70;99.90;;;;;;5043182;28;20646;-76
2022/05/12 03:37:40;;;;;;;1433.70;999.90;;;14.60;99.90;;;;;;5038772;28;20231;-77
2022/05/12 03:40:07;;;;;;;1353.10;999.90;;;14.60;99.90;;;;;;5050001;28;20688;-78
2022/05/12 03:42:32;;;;;;;1393.85;999.90;;;14.50;99.90;;;;;;5033971;28;20266;-77
2022/05/12 03:44:59;;;;;;;1422.40;999.90;;;14.40;99.90;;;;;;5051003;28;20328;-77
2022/05/12 03:47:34;;;;;;;1393.38;999.90;;;14.30;99.90;;;;;;5042371;28;20248;-77
2022/05/12 03:50:07;;;;;;;1354.32;999.90;;;14.30;99.90;;;;;;5038190;28;20635;-77
2022/05/12 03:52:33;;;;;;;1347.38;999.90;;;14.20;99.90;;;;;;5035655;28;20210;-76
2022/05/12 03:54:59;;;;;;;1307.88;999.90;;;14.30;99.90;;;;;;5035532;28;20324;-77
2022/05/12 03:57:27;;;;;;;1372.40;999.90;;;14.30;99.90;;;;;;5034570;28;20253;-77
2022/05/12 03:59:54;;;;;;;1335.05;999.90;;;14.30;99.90;;;;;;5046247;28;20206;-78
2022/05/12 04:02:24;;;;;;;1318.43;999.90;;;14.20;99.90;;;;;;5043946;28;20234;-78
2022/05/12 04:04:50;;;;;;;1359.40;999.90;;;14.20;99.90;;;;;;5036071;28;20195;-78
2022/05/12 04:07:19;;;;;;;1311.07;999.90;;;14.20;99.90;;;;;;5025683;28;20197;-78
2022/05/12 04:09:45;;;;;;;1347.63;999.90;;;14.20;99.90;;;;;;5036211;28;20183;-77
2022/05/12 04:12:11;;;;;;;1356.53;999.90;;;14.20;99.90;;;;;;5043702;28;20202;-77
2022/05/12 04:14:38;;;;;;;1367.32;999.90;;;14.20;99.90;;;;;;5050138;28;20187;-77
2022/05/12 04:17:10;;;;;;;1341.68;999.90;;;14.20;99.90;;;;;;5021257;28;20181;-77
2022/05/12 04:19:37;;;;;;;1354.95;999.90;;;14.10;99.90;;;;;;5035571;28;20186;-77
2022/05/12 04:22:03;;;;;;;1360.78;999.90;;;14.10;99.90;;;;;;5050149;28;20208;-78
2022/05/12 04:24:29;;;;;;;1320.85;999.90;;;14.10;99.90;;;;;;5022209;28;20213;-78
2022/05/12 04:26:56;;;;;;;1332.53;999.90;;;14.10;99.90;;;;;;5028157;28;20651;-77
2022/05/12 04:29:22;;;;;;;1396.15;999.90;;;14.20;99.90;;;;;;5034954;28;20183;-77
2022/05/12 04:31:47;;;;;;;1409.78;999.90;;;14.20;99.90;;;;;;5034511;28;20206;-78
2022/05/12 04:36:57;;;;;;;1304.82;999.90;;;14.20;99.90;;;;;;5033300;28;20201;-77
2022/05/12 04:39:23;;;;;;;1364.32;999.90;;;14.40;99.90;;;;;;5038418;28;20187;-77
2022/05/12 04:41:49;;;;;;;1430.20;999.90;;;14.30;99.90;;;;;;5033535;28;20187;-77
2022/05/12 04:44:15;;;;;;;1394.55;999.90;;;14.30;99.90;;;;;;5036837;28;20186;-77
2022/05/12 04:46:42;;;;;;;1392.50;999.90;;;14.30;99.90;;;;;;5049156;28;20193;-77
2022/05/12 04:49:09;;;;;;;1397.82;999.90;;;14.40;99.90;;;;;;5045556;28;20186;-77
2022/05/12 04:51:36;;;;;;;1395.43;999.90;;;14.50;99.90;;;;;;5048477;28;20284;-77
2022/05/12 04:54:01;;;;;;;1391.47;999.90;;;14.60;99.90;;;;;;5050976;28;20182;-77
2022/05/12 04:56:27;;;;;;;1417.75;999.90;;;14.50;99.90;;;;;;5051938;28;20716;-77
2022/05/12 04:58:53;;;;;;;1436.13;999.90;;;14.40;99.90;;;;;;5038417;28;20694;-77
2022/05/12 05:01:19;;;;;;;1448.20;999.90;;;14.50;99.90;;;;;;5044281;28;20202;-77
2022/05/12 05:03:45;;;;;;;1421.63;999.90;;;14.60;99.90;;;;;;5044600;28;20201;-77
2022/05/12 05:06:11;;;;;;;1420.32;999.90;;;14.70;99.90;;;;;;5033109;28;20186;-77
2022/05/12 05:08:39;;;;;;;1445.38;999.90;;;14.80;99.90;;;;;;5016394;28;20213;-76
2022/05/12 05:11:06;;;;;;;1429.05;999.90;;;14.80;99.90;;;;;;5033462;28;20240;-78
2022/05/12 05:13:32;;;;;;;1347.40;999.90;;;14.80;99.90;;;;;;5032746;28;20182;-77
2022/05/12 05:15:58;;;;;;;1422.97;999.90;;;14.80;99.90;;;;;;5033926;28;20714;-77
2022/05/12 05:18:25;;;;;;;1431.38;999.90;;;14.80;99.90;;;;;;5033384;28;20274;-77
2022/05/12 05:20:51;;;;;;;1428.75;999.90;;;14.80;99.90;;;;;;5033823;28;20214;-77
2022/05/12 05:23:21;;;;;;;1505.15;999.90;;;14.80;99.90;;;;;;5032809;28;20364;-77
2022/05/12 05:25:48;;;;;;;1500.95;999.90;;;14.90;99.90;;;;;;5034100;28;20217;-77
2022/05/12 05:28:14;;;;;;;1483.20;999.90;;;15.20;99.90;;;;;;5032818;28;20182;-77
2022/05/12 05:30:41;;;;;;;1457.65;999.90;;;15.30;99.90;;;;;;5031817;28;20194;-77
2022/05/12 05:33:08;;;;;;;1499.72;999.90;;;15.20;99.90;;;;;;5033472;28;20202;-78
2022/05/12 05:35:34;;;;;;;1463.20;999.90;;;15.10;99.90;;;;;;5032150;28;20312;-78
2022/05/12 05:38:00;;;;;;;1379.95;999.90;;;15.10;99.90;;;;;;5065685;28;20190;-77
2022/05/12 05:40:30;;;;;;;1364.65;999.90;;;15.00;99.90;;;;;;5032404;28;20274;-77
2022/05/12 05:42:56;;;;;;;1358.68;999.90;;;15.10;99.90;;;;;;5048862;28;20235;-78
2022/05/12 05:45:24;;;;;;;1345.10;999.90;;;15.20;99.90;;;;;;5051372;28;20182;-78
2022/05/12 05:47:54;;;;;;;1364.13;999.90;;;15.30;99.90;;;;;;5042223;28;20188;-78
2022/05/12 05:50:23;;;;;;;1381.70;999.90;;;15.30;99.90;;;;;;5033458;28;20175;-77
2022/05/12 05:55:34;;;;;;;1380.93;999.90;;;15.30;99.90;;;;;;5031228;28;20200;-77
2022/05/12 05:58:01;;;;;;;1431.43;999.90;;;15.30;99.90;;;;;;5031140;28;20187;-76
2022/05/12 06:00:28;;;;;;;1401.25;999.90;;;15.10;99.90;;;;;;5064720;28;20232;-76
2022/05/12 06:02:54;;;;;;;1398.07;999.90;;;15.30;99.90;;;;;;5040586;28;20328;-76
2022/05/12 06:05:21;;;;;;;1471.75;999.90;;;15.30;99.90;;;;;;5033093;28;20276;-77
2022/05/12 06:07:47;;;;;;;1427.78;999.90;;;15.40;99.90;;;;;;5039305;28;20186;-75
2022/05/12 06:10:13;;;;;;;1420.95;999.90;;;15.60;99.90;;;;;;5048080;28;20214;-77
2022/05/12 06:12:40;;;;;;;1404.88;999.90;;;15.50;99.90;;;;;;5042095;28;20245;-78
2022/05/12 06:15:07;;;;;;;1399.90;999.90;;;15.50;99.90;;;;;;5031805;28;20187;-78
2022/05/12 06:17:35;;;;;;;1387.43;999.90;;;15.60;99.90;;;;;;5034371;28;20253;-77
2022/05/12 06:20:01;;;;;;;1392.85;999.90;;;15.60;99.90;;;;;;5044348;28;20667;-78
2022/05/12 06:22:26;;;;;;;1397.97;999.90;;;15.80;99.90;;;;;;5015449;28;20367;-78
2022/05/12 06:24:52;;;;;;;1336.53;999.90;;;15.80;99.90;;;;;;5015882;28;20197;-77
2022/05/12 06:27:19;;;;;;;1342.53;999.90;;;16.00;99.90;;;;;;5031858;28;20187;-78
2022/05/12 06:29:45;;;;;;;1304.68;999.90;;;15.90;99.90;;;;;;5031651;28;20590;-78
2022/05/12 06:32:12;;;;;;;1310.38;999.90;;;16.20;99.90;;;;;;5031538;28;20297;-78
2022/05/12 06:34:41;;;;;;;1294.97;999.90;;;16.30;99.90;;;;;;5032610;28;20260;-77
2022/05/12 06:37:08;;;;;;;1317.10;999.90;;;16.30;99.90;;;;;;5034256;28;20270;-77
2022/05/12 06:39:34;;;;;;;1293.50;999.90;;;16.30;99.90;;;;;;5048233;28;20628;-77
2022/05/12 06:42:01;;;;;;;1307.90;999.90;;;16.50;99.90;;;;;;5037291;28;20186;-77
2022/05/12 06:44:27;;;;;;;1280.38;999.90;;;16.70;99.90;;;;;;5049124;28;20264;-78
2022/05/12 06:46:53;;;;;;;1315.88;999.90;;;16.60;99.90;;;;;;5035068;28;20519;-78
2022/05/12 06:49:20;;;;;;;1252.57;999.90;;;16.40;99.90;;;;;;5034945;28;20189;-76
2022/05/12 06:51:45;;;;;;;1264.85;999.90;;;16.40;99.90;;;;;;5039331;28;20218;-77
2022/05/12 06:54:12;;;;;;;1247.93;999.90;;;16.40;99.90;;;;;;5036884;28;20194;-77
2022/05/12 06:56:38;;;;;;;1258.90;999.90;;;16.30;99.90;;;;;;5044955;28;20190;-77
2022/05/12 06:59:04;;;;;;;1273.50;999.90;;;16.30;99.90;;;;;;5045633;28;20658;-76
2022/05/12 07:01:33;;;;;;;1258.75;999.90;;;16.40;99.90;;;;;;5036894;28;20205;-77
2022/05/12 07:04:00;;;;;;;1236.47;999.90;;;16.50;99.90;;;;;;5035472;28;20190;-77
2022/05/12 07:06:27;;;;;;;1225.97;999.90;;;16.70;99.90;;;;;;5048147;28;20584;-77
2022/05/12 07:08:53;;;;;;;1212.65;999.90;;;16.80;99.90;;;;;;5018569;28;20203;-77
2022/05/12 07:11:19;;;;;;;1216.47;999.90;;;17.00;99.90;;;;;;5035191;28;20217;-77
2022/05/12 07:13:46;;;;;;;1208.32;999.90;;;17.00;99.90;;;;;;5035968;28;20183;-77
2022/05/12 07:16:12;;;;;;;1206.68;999.90;;;17.20;99.90;;;;;;5051508;28;20578;-71
2022/05/12 07:18:37;;;;;;;1144.40;999.90;;;17.40;99.90;;;;;;5067854;28;20194;-73
2022/05/12 07:26:36;;;;;;;865.28;804.05;;;18.10;99.90;;;;;;5035413;28;20185;-73
2022/05/12 07:29:04;;;;;;;654.33;612.78;;;18.70;99.90;;;;;;5050923;28;20182;-77
2022/05/12 07:31:30;;;;;;;615.38;577.63;;;19.50;99.90;;;;;;5040317;28;20289;-73
2022/05/12 07:33:57;;;;;;;477.13;449.90;;;20.70;99.90;;;;;;5044750;28;20186;-74
2022/05/12 07:36:28;;;;;;;318.17;301.23;;;22.20;99.90;;;;;;5035035;28;20190;-74
2022/05/12 07:38:58;;;;;;;1180.45;999.90;;;24.00;99.90;;;;;;5035607;28;20182;-71
2022/05/12 07:41:24;;;;;;;779.47;726.38;;;24.70;99.90;;;;;;5067970;28;20178;-71
2022/05/12 07:43:51;;;;;;;1024.22;942.97;;;25.50;99.90;;;;;;5053441;28;20207;-66
2022/05/12 07:46:21;;;;;;;1610.22;999.90;;;26.70;99.90;;;;;;5050352;28;20178;-74
2022/05/12 07:48:48;;;;;;;1999.90;999.90;;;27.10;99.90;;;;;;5044594;28;20192;-70
2022/05/12 07:51:14;;;;;;;1999.90;999.90;;;27.80;99.90;;;;;;5035229;28;20666;-73
2022/05/12 07:53:40;;;;;;;1999.90;999.90;;;28.40;99.90;;;;;;5053907;28;20197;-73
2022/05/12 07:56:07;;;;;;;1999.90;999.90;;;28.50;99.90;;;;;;5035446;28;20182;-70
2022/05/12 07:58:33;;;;;;;1999.90;999.90;;;28.90;99.90;;;;;;5036575;28;20180;-70
2022/05/12 08:00:59;;;;;;;1999.90;999.90;;;29.00;99.90;;;;;;5066836;28;20281;-70
2022/05/12 08:03:26;;;;;;;1999.90;999.90;;;28.70;99.90;;;;;;5039082;28;20350;-71
2022/05/12 08:05:52;;;;;;;1999.90;999.90;;;29.40;99.90;;;;;;5044111;28;20181;-70
2022/05/12 08:08:18;;;;;;;1999.90;999.90;;;30.00;99.90;;;;;;5046643;28;20178;-71
2022/05/12 08:10:44;;;;;;;1999.90;999.90;;;30.50;99.90;;;;;;5034969;28;20665;-71
2022/05/12 08:13:17;;;;;;;1999.90;999.90;;;29.20;99.90;;;;;;5035071;28;20189;-71
2022/05/12 08:15:49;;;;;;;1999.90;999.90;;;29.40;99.90;;;;;;5035068;28;20182;-71
2022/05/12 08:18:21;;;;;;;1999.90;999.90;;;29.40;99.90;;;;;;5034950;28;20257;-71
2022/05/12 08:20:47;;;;;;;1999.90;999.90;;;28.80;99.90;;;;;;5034531;28;20192;-69
2022/05/12 08:23:13;;;;;;;1999.90;999.90;;;29.20;99.90;;;;;;5035218;28;20573;-69
2022/05/12 08:25:40;;;;;;;1999.90;999.90;;;29.50;99.90;;;;;;5033552;28;20517;-70
2022/05/12 08:28:07;;;;;;;1999.90;999.90;;;28.90;99.90;;;;;;5067009;28;20554;-72
2022/05/12 08:30:36;;;;;;;1999.90;999.90;;;27.90;99.90;;;;;;5046436;28;20189;-70
2022/05/12 08:33:02;;;;;;;1999.90;999.90;;;26.30;99.90;;;;;;5053781;28;20237;-69
2022/05/12 08:35:28;;;;;;;1999.90;999.90;;;26.20;99.90;;;;;;5036412;28;20217;-73
2022/05/12 08:37:54;;;;;;;1999.90;999.90;;;26.80;99.90;;;;;;5040971;28;20186;-71
2022/05/12 08:40:57;;;;;;;1999.90;999.90;;;27.90;99.90;;;;;;5023554;28;20189;-70
2022/05/12 08:43:31;;;;;;;1999.90;999.90;;;28.10;99.90;;;;;;5044535;28;20550;-71
2022/05/12 08:46:12;;;;;;;1999.90;999.90;;;28.10;99.90;;;;;;5034610;28;20186;-71
2022/05/12 08:48:41;;;;;;;1999.90;999.90;;;28.20;99.90;;;;;;5034822;28;20182;-76
2022/05/12 08:51:08;;;;;;;1999.90;999.90;;;28.10;99.90;;;;;;5044469;28;20617;-71
2022/05/12 08:53:49;;;;;;;1999.90;999.90;;;27.70;99.90;;;;;;5034460;28;20266;-73
2022/05/12 08:56:19;;;;;;;1999.90;999.90;;;28.40;99.90;;;;;;5034632;28;20178;-71
2022/05/12 08:58:49;;;;;;;1999.90;999.90;;;29.20;99.90;;;;;;5033735;28;20216;-71
2022/05/12 09:01:36;;;;;;;1999.90;999.90;;;29.60;99.90;;;;;;5034286;28;20300;-72
2022/05/12 09:04:20;;;;;;;1999.90;999.90;;;29.90;99.90;;;;;;5048240;28;20181;-69
2022/05/12 09:07:12;;;;;;;1999.90;999.90;;;30.30;99.90;;;;;;5047364;28;20230;-70
2022/05/12 09:09:52;;;;;;;1999.90;999.90;;;29.60;99.90;;;;;;5045264;28;20250;-70
2022/05/12 09:12:45;;;;;;;1999.90;999.90;;;29.50;99.90;;;;;;5035448;28;20724;-70
2022/05/12 09:15:33;;;;;;;1999.90;999.90;;;28.90;99.90;;;;;;5057349;28;20192;-70
2022/05/12 09:18:01;;;;;;;1999.90;999.90;;;27.80;99.90;;;;;;5043433;28;20186;-72
2022/05/12 09:20:34;;;;;;;1999.90;999.90;;;27.20;99.90;;;;;;5041461;28;20194;-69
2022/05/12 09:23:01;;;;;;;1999.90;999.90;;;26.70;99.90;;;;;;5033068;28;20243;-71
2022/05/12 09:25:31;;;;;;;1999.90;999.90;;;26.00;99.90;;;;;;5048896;28;20268;-70
2022/05/12 09:27:58;;;;;;;1999.90;999.90;;;25.50;99.90;;;;;;5037550;28;20232;-69
2022/05/12 09:30:32;;;;;;;1999.90;999.90;;;25.30;99.90;;;;;;5069749;28;20205;-69
2022/05/12 09:32:59;;;;;;;1999.90;999.90;;;25.00;99.90;;;;;;5044305;28;20273;-68
2022/05/12 09:35:27;;;;;;;1999.90;999.90;;;23.80;99.90;;;;;;5079466;28;20644;-68
2022/05/12 09:37:53;;;;;;;1999.90;999.90;;;23.30;99.90;;;;;;5051217;28;20662;-73
2022/05/12 09:40:37;;;;;;;1999.90;999.90;;;22.90;99.90;;;;;;5046075;28;20581;-69
2022/05/12 09:43:29;;;;;;;1969.18;999.90;;;22.60;99.90;;;;;;5047946;28;20648;-67
2022/05/12 09:46:20;;;;;;;1977.05;999.90;;;23.00;99.90;;;;;;5055451;28;20248;-68
2022/05/12 09:48:48;;;;;;;1934.18;999.90;;;22.90;99.90;;;;;;5040072;28;20179;-70
2022/05/12 09:51:22;;;;;;;1898.00;999.90;;;22.80;99.90;;;;;;5042271;28;20659;-68
2022/05/12 09:53:54;;;;;;;1893.70;999.90;;;22.80;99.90;;;;;;5060379;28;20659;-69
2022/05/12 09:56:32;;;;;;;1909.72;999.90;;;22.80;99.90;;;;;;5061974;28;20182;-72
2022/05/12 09:59:07;;;;;;;1780.85;999.90;;;23.10;99.90;;;;;;5048247;28;20304;-70
2022/05/12 10:01:34;;;;;;;1701.90;999.90;;;23.10;99.90;;;;;;5035941;28;20635;-71
2022/05/12 10:09:52;;;;;;;1717.63;999.90;;;22.80;99.90;;;;;;5048573;28;20182;-73
2022/05/12 10:12:23;;;;;;;1706.18;999.90;;;22.60;99.90;;;;;;5051308;28;20276;-71
2022/05/12 10:14:58;;;;;;;1717.43;999.90;;;22.80;99.90;;;;;;5045029;28;20189;-71
2022/05/12 10:17:39;;;;;;;1536.10;999.90;;;22.60;99.90;;;;;;5033242;28;20170;-71
2022/05/12 10:20:10;;;;;;;1551.72;999.90;;;22.10;99.90;;;;;;5040357;28;20569;-71
2022/05/12 10:23:01;;;;;;;1470.13;999.90;;;22.00;99.90;;;;;;5045020;28;20179;-70
2022/05/12 10:25:57;;;;;;;1440.82;999.90;;;22.10;99.90;;;;;;5036241;28;20214;-74
2022/05/12 10:28:26;;;;;;;1485.85;999.90;;;22.10;99.90;;;;;;5036684;28;20532;-70
2022/05/12 10:31:04;;;;;;;1425.50;999.90;;;22.30;99.90;;;;;;5067920;28;20265;-72
2022/05/12 10:33:45;;;;;;;1391.80;999.90;;;22.30;99.90;;;;;;5047278;28;20189;-70
2022/05/12 10:36:26;;;;;;;1385.90;999.90;;;21.70;99.90;;;;;;5036179;28;20225;-70
2022/05/12 10:39:06;;;;;;;1408.85;999.90;;;22.10;99.90;;;;;;5046383;28;20240;-70
2022/05/12 10:41:47;;;;;;;1404.78;999.90;;;22.40;99.90;;;;;;5043424;28;20189;-75
2022/05/12 10:44:17;;;;;;;1397.47;999.90;;;22.20;99.90;;;;;;5038278;28;20558;-72
2022/05/12 10:47:17;;;;;;;1401.43;999.90;;;22.20;99.90;;;;;;5036653;28;20178;-73
2022/05/12 10:50:04;;;;;;;1382.30;999.90;;;22.50;99.90;;;;;;5036328;28;20175;-71
2022/05/12 10:52:52;;;;;;;1366.20;999.90;;;21.60;99.90;;;;;;5051062;28;20229;-70
2022/05/12 10:55:44;;;;;;;1354.78;999.90;;;21.30;99.90;;;;;;5036684;28;20202;-74
2022/05/12 10:58:29;;;;;;;1385.20;999.90;;;21.30;99.90;;;;;;5035996;28;20182;-81
2022/05/12 11:01:19;;;;;;;1377.47;999.90;;;21.80;99.90;;;;;;5038475;28;20214;-74
2022/05/12 11:03:57;;;;;;;1354.10;999.90;;;21.80;99.90;;;;;;5042513;28;20253;-74
2022/05/12 11:06:51;;;;;;;1385.43;999.90;;;22.00;99.90;;;;;;5052086;28;20189;-71
2022/05/12 11:09:25;;;;;;;1371.70;999.90;;;22.50;99.90;;;;;;5039558;28;20691;-68
2022/05/12 11:11:55;;;;;;;1384.60;999.90;;;22.40;99.90;;;;;;5046689;28;20537;-75
2022/05/12 11:14:31;;;;;;;1393.57;999.90;;;22.30;99.90;;;;;;5036933;28;20237;-75
2022/05/12 11:17:55;;;;;;;1382.93;999.90;;;22.50;99.90;;;;;;5040936;28;20180;-75
2022/05/12 11:20:33;;;;;;;1395.75;999.90;;;22.70;99.90;;;;;;5012274;28;20194;-75
2022/05/12 11:23:29;;;;;;;1404.20;999.90;;;22.80;99.90;;;;;;5077446;28;20583;-75
2022/05/12 11:26:00;;;;;;;1387.50;999.90;;;23.00;99.90;;;;;;5041630;28;20194;-75
2022/05/12 11:31:48;;;;;;;1439.07;999.90;;;23.30;99.90;;;;;;5047771;28;20279;-75
2022/05/12 11:34:20;;;;;;;1407.47;999.90;;;23.60;99.90;;;;;;5056259;28;20712;-74
2022/05/12 11:36:48;;;;;;;1428.90;999.90;;;23.60;99.90;;;;;;5037387;28;20224;-74
2022/05/12 11:39:27;;;;;;;1443.72;999.90;;;23.60;99.90;;;;;;5035652;28;20182;-74
2022/05/12 11:42:16;;;;;;;1513.47;999.90;;;23.80;99.90;;;;;;5053353;28;20178;-79
2022/05/12 11:44:56;;;;;;;1520.68;999.90;;;24.00;99.90;;;;;;5042761;28;20514;-79
2022/05/12 11:47:59;;;;;;;1438.68;999.90;;;23.70;99.90;;;;;;5067571;28;20265;-83
2022/05/12 11:50:42;;;;;;;1487.32;999.90;;;23.80;99.90;;;;;;5035607;28;20228;-71
2022/05/12 11:53:25;;;;;;;1450.75;999.90;;;23.90;99.90;;;;;;5034387;28;20209;-71
2022/05/12 11:56:08;;;;;;;1467.88;999.90;;;23.80;99.90;;;;;;5042620;28;20178;-71
2022/05/12 11:58:47;;;;;;;1460.15;999.90;;;24.10;99.90;;;;;;5045979;28;20186;-71
2022/05/12 12:01:14;;;;;;;1433.85;999.90;;;24.00;99.90;;;;;;5051421;28;20218;-70
2022/05/12 12:03:52;;;;;;;1499.75;999.90;;;24.10;99.90;;;;;;5047891;28;20175;-71
2022/05/12 12:06:36;;;;;;;1515.18;999.90;;;24.40;99.90;;;;;;5042302;28;20212;-70
2022/05/12 12:09:29;;;;;;;1486.68;999.90;;;24.40;99.90;;;;;;5046569;28;20240;-68
2022/05/12 12:11:55;;;;;;;1477.97;999.90;;;24.00;99.90;;;;;;5041316;28;20208;-71
2022/05/12 12:14:58;;;;;;;1872.82;999.90;;;23.90;99.90;;;;;;5045567;28;20505;-70
2022/05/12 12:17:34;;;;;;;1628.72;999.90;;;24.10;99.90;;;;;;5023447;28;20194;-71
2022/05/12 12:20:21;;;;;;;1608.50;999.90;;;24.10;99.90;;;;;;5038722;28;20173;-71
2022/05/12 12:22:49;;;;;;;1580.15;999.90;;;24.30;99.90;;;;;;5053693;28;20216;-71
2022/05/12 12:25:34;;;;;;;1653.53;999.90;;;24.00;99.90;;;;;;5048688;28;20645;-71
2022/05/12 12:28:27;;;;;;;1619.18;999.90;;;24.10;99.90;;;;;;5048962;28;20205;-71
2022/05/12 12:30:53;;;;;;;1646.10;999.90;;;24.00;99.90;;;;;;5047453;28;20277;-71
2022/05/12 12:33:39;;;;;;;1646.03;999.90;;;24.20;99.90;;;;;;5034671;28;20273;-72
2022/05/12 12:36:15;;;;;;;1654.00;999.90;;;24.20;99.90;;;;;;5034202;28;20274;-68